createdAt,value
2023-05-15T14:57:52.305Z,94527.00
2023-05-15T14:58:52.309Z,94528.00
2023-05-15T14:59:52.278Z,94526.00
2023-05-15T15:00:52.260Z,94530.00
2023-05-15T15:01:52.287Z,94533.00
2023-05-15T15:02:52.289Z,94530.00
2023-05-15T15:03:52.510Z,94532.00
2023-05-15T15:04:52.241Z,94531.00
2023-05-15T15:05:52.227Z,94532.00
2023-05-15T15:06:52.234Z,94536.00
2023-05-15T15:07:52.216Z,94534.00
2023-05-15T15:08:52.968Z,94533.00
2023-05-15T15:09:52.182Z,94534.00
2023-05-15T15:10:52.181Z,94533.00
2023-05-15T15:11:52.198Z,94533.00
2023-05-15T15:12:52.165Z,94534.00
2023-05-15T15:13:52.281Z,94533.00
2023-05-15T15:14:52.174Z,94529.00
2023-05-15T15:15:52.172Z,94531.00
2023-05-15T15:16:52.178Z,94530.00
2023-05-15T15:17:52.226Z,94532.00
2023-05-15T15:18:52.148Z,94530.00
2023-05-15T15:19:52.142Z,94527.00
2023-05-15T15:20:52.103Z,94526.00
2023-05-15T15:21:52.103Z,94526.00
2023-05-15T15:22:52.089Z,94527.00
2023-05-15T15:23:52.089Z,94527.00
2023-05-15T15:24:52.088Z,94526.00
2023-05-15T15:25:52.104Z,94528.00
2023-05-15T15:26:52.056Z,94525.00
2023-05-15T15:27:52.082Z,94526.00
2023-05-15T15:28:52.047Z,94528.00
2023-05-15T15:29:52.052Z,94527.00
2023-05-15T15:30:52.036Z,94527.00
2023-05-15T15:31:52.036Z,94529.00
2023-05-15T15:32:52.096Z,94530.00
2023-05-15T15:33:52.009Z,94531.00
2023-05-15T15:34:52.025Z,94532.00
2023-05-15T15:35:52.013Z,94536.00
2023-05-15T15:36:51.998Z,94537.00
2023-05-15T15:37:52.004Z,94540.00
2023-05-15T15:38:51.992Z,94541.00
2023-05-15T15:39:51.965Z,94542.00
2023-05-15T15:40:51.970Z,94541.00
2023-05-15T15:41:51.953Z,94544.00
2023-05-15T15:42:51.955Z,94542.00
2023-05-15T15:43:51.937Z,94543.00
2023-05-15T15:44:51.974Z,94547.00
2023-05-15T15:45:51.961Z,94545.00
2023-05-15T15:46:51.920Z,94544.00
2023-05-15T15:47:51.982Z,94543.00
2023-05-15T15:48:51.926Z,94543.00
2023-05-15T15:49:51.934Z,94541.00
2023-05-15T15:50:51.888Z,94539.00
2023-05-15T15:51:51.893Z,94541.00
2023-05-15T15:52:51.889Z,94543.00
2023-05-15T15:53:51.891Z,94542.00
2023-05-15T15:54:51.881Z,94545.00
2023-05-15T15:55:51.856Z,94542.00
2023-05-15T15:56:51.851Z,94543.00
2023-05-15T15:57:51.850Z,94543.00
2023-05-15T15:58:51.831Z,94545.00
2023-05-15T15:59:51.822Z,94544.00
2023-05-15T16:00:51.957Z,94547.00
2023-05-15T16:01:51.933Z,94548.00
2023-05-15T16:02:51.879Z,94549.00
2023-05-15T16:03:51.929Z,94549.00
2023-05-15T16:04:51.814Z,94552.00
2023-05-15T16:05:51.900Z,94553.00
2023-05-15T16:06:51.776Z,94552.00
2023-05-15T16:07:51.783Z,94555.00
2023-05-15T16:08:51.811Z,94556.00
2023-05-15T16:10:00.335Z,94556.00
2023-05-15T16:10:53.017Z,94556.00
2023-05-15T16:11:52.176Z,94556.00
2023-05-15T16:12:53.003Z,94557.00
2023-05-15T16:13:52.100Z,94556.00
2023-05-15T16:14:52.128Z,94557.00
2023-05-15T16:15:52.163Z,94556.00
2023-05-15T16:16:52.212Z,94553.00
2023-05-15T16:17:52.672Z,94553.00
2023-05-15T16:18:52.257Z,94555.00
2023-05-15T16:19:52.285Z,94553.00
2023-05-15T16:20:52.322Z,94553.00
2023-05-15T16:21:52.355Z,94553.00
2023-05-15T16:22:52.375Z,94557.00
2023-05-15T16:23:52.384Z,94556.00
2023-05-15T16:24:52.450Z,94556.00
2023-05-15T16:25:52.474Z,94557.00
2023-05-15T16:26:52.499Z,94557.00
2023-05-15T16:27:52.573Z,94558.00
2023-05-15T16:28:52.606Z,94558.00
2023-05-15T16:29:52.648Z,94561.00
2023-05-15T16:30:53.145Z,94559.00
2023-05-15T16:31:52.863Z,94559.00
2023-05-15T16:32:52.752Z,94559.00
2023-05-15T16:33:52.800Z,94562.00
2023-05-15T16:34:52.812Z,94566.00
2023-05-15T16:35:52.871Z,94566.00
2023-05-15T16:36:52.915Z,94568.00
2023-05-15T16:37:52.925Z,94569.00
2023-05-15T16:38:52.967Z,94571.00
2023-05-15T16:39:53.040Z,94572.00
2023-05-15T16:40:53.069Z,94569.00
2023-05-15T16:41:53.076Z,94570.00
2023-05-15T16:42:53.126Z,94568.00
2023-05-15T16:43:53.167Z,94566.00
2023-05-15T16:44:53.233Z,94567.00
2023-05-15T16:45:53.286Z,94569.00
2023-05-15T16:46:53.396Z,94569.00
2023-05-15T16:47:53.458Z,94573.00
2023-05-15T16:48:53.432Z,94574.00
2023-05-15T16:49:53.487Z,94572.00
2023-05-15T16:50:53.504Z,94573.00
2023-05-15T16:51:53.550Z,94574.00
2023-05-15T16:52:53.622Z,94575.00
2023-05-15T16:53:53.643Z,94576.00
2023-05-15T16:54:53.670Z,94578.00
2023-05-15T16:55:53.720Z,94576.00
2023-05-15T16:56:53.803Z,94577.00
2023-05-15T16:57:53.854Z,94581.00
2023-05-15T16:58:53.895Z,94582.00
2023-05-15T16:59:53.919Z,94586.00
2023-05-15T17:00:53.998Z,94583.00
2023-05-15T17:01:54.018Z,94587.00
2023-05-15T17:02:54.131Z,94590.00
2023-05-15T17:03:54.206Z,94588.00
2023-05-15T17:04:54.188Z,94592.00
2023-05-15T17:05:54.200Z,94591.00
2023-05-15T17:06:54.272Z,94590.00
2023-05-15T17:07:54.299Z,94591.00
2023-05-15T17:08:54.363Z,94593.00
2023-05-15T17:09:54.361Z,94593.00
2023-05-15T17:10:54.436Z,94593.00
2023-05-15T17:11:54.492Z,94591.00
2023-05-15T17:12:54.512Z,94592.00
2023-05-15T17:13:54.579Z,94594.00
2023-05-15T17:14:54.636Z,94595.00
2023-05-15T17:15:54.670Z,94597.00
2023-05-15T17:16:54.701Z,94599.00
2023-05-15T17:17:54.806Z,94601.00
2023-05-15T17:18:54.861Z,94602.00
2023-05-15T17:19:54.854Z,94601.00
2023-05-15T17:20:54.898Z,94602.00
2023-05-15T17:21:54.976Z,94602.00
2023-05-15T17:22:54.998Z,94605.00
2023-05-15T17:23:55.066Z,94606.00
2023-05-15T17:24:55.101Z,94608.00
2023-05-15T17:25:55.185Z,94608.00
2023-05-15T17:26:55.222Z,94607.00
2023-05-15T17:27:55.287Z,94608.00
2023-05-15T17:28:55.342Z,94610.00
2023-05-15T17:29:55.458Z,94612.00
2023-05-15T17:30:55.474Z,94613.00
2023-05-15T17:31:55.516Z,94613.00
2023-05-15T17:32:55.589Z,94614.00
2023-05-15T17:33:55.617Z,94619.00
2023-05-15T17:34:55.690Z,94618.00
2023-05-15T17:35:55.713Z,94618.00
2023-05-15T17:36:55.744Z,94617.00
2023-05-15T17:37:55.849Z,94618.00
2023-05-15T17:38:55.899Z,94619.00
2023-05-15T17:39:56.098Z,94620.00
2023-05-15T17:40:56.005Z,94620.00
2023-05-15T17:41:56.058Z,94620.00
2023-05-15T17:42:56.059Z,94624.00
2023-05-15T17:43:56.116Z,94625.00
2023-05-15T17:44:56.176Z,94626.00
2023-05-15T17:45:56.181Z,94629.00
2023-05-15T17:46:56.113Z,94631.00
2023-05-15T17:47:56.159Z,94630.00
2023-05-15T17:48:56.152Z,94631.00
2023-05-15T17:49:56.192Z,94630.00
2023-05-15T17:50:56.185Z,94630.00
2023-05-15T17:51:56.163Z,94630.00
2023-05-15T17:52:56.203Z,94630.00
2023-05-15T17:53:56.226Z,94632.00
2023-05-15T17:54:56.192Z,94630.00
2023-05-15T17:55:56.219Z,94633.00
2023-05-15T17:56:56.230Z,94633.00
2023-05-15T17:57:56.211Z,94635.00
2023-05-15T17:58:56.208Z,94635.00
2023-05-15T17:59:56.224Z,94640.00
2023-05-15T18:00:56.213Z,94639.00
2023-05-15T18:01:56.369Z,94641.00
2023-05-15T18:02:56.346Z,94643.00
2023-05-15T18:03:56.278Z,94642.00
2023-05-15T18:04:56.233Z,94643.00
2023-05-15T18:05:56.252Z,94645.00
2023-05-15T18:06:56.269Z,94643.00
2023-05-15T18:07:56.289Z,94643.00
2023-05-15T18:08:56.274Z,94643.00
2023-05-15T18:09:56.271Z,94646.00
2023-05-15T18:10:56.286Z,94644.00
2023-05-15T18:11:56.320Z,94644.00
2023-05-15T18:12:56.299Z,94647.00
2023-05-15T18:13:56.378Z,94645.00
2023-05-15T18:14:56.354Z,94648.00
2023-05-15T18:15:56.365Z,94648.00
2023-05-15T18:16:56.353Z,94648.00
2023-05-15T18:17:56.449Z,94647.00
2023-05-15T18:18:56.451Z,94647.00
2023-05-15T18:19:56.408Z,94649.00
2023-05-15T18:20:56.416Z,94648.00
2023-05-15T18:21:56.431Z,94647.00
2023-05-15T18:22:56.444Z,94647.00
2023-05-15T18:23:56.450Z,94646.00
2023-05-15T18:24:56.499Z,94644.00
2023-05-15T18:25:56.484Z,94647.00
2023-05-15T18:26:56.492Z,94646.00
2023-05-15T18:27:56.496Z,94645.00
2023-05-15T18:28:56.494Z,94644.00
2023-05-15T18:29:56.526Z,94646.00
2023-05-15T18:30:56.535Z,94646.00
2023-05-15T18:31:56.635Z,94648.00
2023-05-15T18:32:56.606Z,94649.00
2023-05-15T18:33:56.561Z,94649.00
2023-05-15T18:34:56.574Z,94649.00
2023-05-15T18:35:56.618Z,94649.00
2023-05-15T18:36:56.625Z,94653.00
2023-05-15T18:37:56.645Z,94655.00
2023-05-15T18:38:56.664Z,94659.00
2023-05-15T18:39:56.698Z,94659.00
2023-05-15T18:40:56.684Z,94660.00
2023-05-15T18:41:56.716Z,94661.00
2023-05-15T18:42:56.738Z,94661.00
2023-05-15T18:43:56.707Z,94663.00
2023-05-15T18:44:56.735Z,94663.00
2023-05-15T18:45:56.768Z,94662.00
2023-05-15T18:46:56.851Z,94661.00
2023-05-15T18:47:56.847Z,94660.00
2023-05-15T18:48:56.814Z,94662.00
2023-05-15T18:49:56.839Z,94662.00
2023-05-15T18:50:56.880Z,94662.00
2023-05-15T18:51:56.858Z,94664.00
2023-05-15T18:52:56.886Z,94665.00
2023-05-15T18:53:56.910Z,94667.00
2023-05-15T18:54:56.962Z,94666.00
2023-05-15T18:55:56.923Z,94667.00
2023-05-15T18:56:56.957Z,94667.00
2023-05-15T18:57:56.971Z,94667.00
2023-05-15T18:58:56.999Z,94669.00
2023-05-15T18:59:57.048Z,94668.00
2023-05-15T19:00:57.043Z,94670.00
2023-05-15T19:01:57.113Z,94674.00
2023-05-15T19:02:57.212Z,94675.00
2023-05-15T19:03:57.126Z,94677.00
2023-05-15T19:04:57.569Z,94676.00
2023-05-15T19:05:57.176Z,94681.00
2023-05-15T19:06:57.170Z,94678.00
2023-05-15T19:07:57.176Z,94681.00
2023-05-15T19:08:57.205Z,94680.00
2023-05-15T19:09:57.234Z,94679.00
2023-05-15T19:10:59.158Z,94681.00
2023-05-15T19:11:57.262Z,94684.00
2023-05-15T19:12:57.311Z,94682.00
2023-05-15T19:13:57.320Z,94682.00
2023-05-15T19:14:57.230Z,94686.00
2023-05-15T19:15:57.197Z,94685.00
2023-05-15T19:16:57.357Z,94690.00
2023-05-15T19:17:57.323Z,94687.00
2023-05-15T19:18:57.212Z,94688.00
2023-05-15T19:19:57.228Z,94690.00
2023-05-15T19:20:57.214Z,94691.00
2023-05-15T19:21:57.158Z,94692.00
2023-05-15T19:22:57.145Z,94691.00
2023-05-15T19:23:57.154Z,94692.00
2023-05-15T19:24:57.159Z,94692.00
2023-05-15T19:25:57.175Z,94692.00
2023-05-15T19:26:57.115Z,94691.00
2023-05-15T19:27:57.135Z,94692.00
2023-05-15T19:28:57.176Z,94695.00
2023-05-15T19:29:57.206Z,94695.00
2023-05-15T19:30:57.252Z,94695.00
2023-05-15T19:31:57.325Z,94696.00
2023-05-15T19:32:57.331Z,94696.00
2023-05-15T19:33:57.451Z,94700.00
2023-05-15T19:34:57.397Z,94699.00
2023-05-15T19:35:57.462Z,94700.00
2023-05-15T19:36:57.473Z,94701.00
2023-05-15T19:37:57.546Z,94700.00
2023-05-15T19:38:57.617Z,94701.00
2023-05-15T19:39:57.628Z,94704.00
2023-05-15T19:40:57.634Z,94702.00
2023-05-15T19:41:57.705Z,94704.00
2023-05-15T19:42:57.771Z,94703.00
2023-05-15T19:43:57.777Z,94703.00
2023-05-15T19:44:57.848Z,94704.00
2023-05-15T19:45:57.990Z,94704.00
2023-05-15T19:46:57.951Z,94704.00
2023-05-15T19:47:58.037Z,94706.00
2023-05-15T19:48:58.059Z,94708.00
2023-05-15T19:49:58.128Z,94707.00
2023-05-15T19:50:58.177Z,94711.00
2023-05-15T19:51:58.214Z,94711.00
2023-05-15T19:52:58.268Z,94713.00
2023-05-15T19:53:58.325Z,94713.00
2023-05-15T19:54:58.398Z,94714.00
2023-05-15T19:55:58.465Z,94714.00
2023-05-15T19:56:58.503Z,94712.00
2023-05-15T19:57:58.572Z,94714.00
2023-05-15T19:58:58.617Z,94710.00
2023-05-15T19:59:58.659Z,94710.00
2023-05-15T20:00:58.725Z,94712.00
2023-05-15T20:01:58.809Z,94713.00
2023-05-15T20:02:58.923Z,94712.00
2023-05-15T20:03:59.012Z,94713.00
2023-05-15T20:04:58.952Z,94713.00
2023-05-15T20:05:58.992Z,94711.00
2023-05-15T20:06:59.086Z,94710.00
2023-05-15T20:07:59.208Z,94714.00
2023-05-15T20:08:59.177Z,94710.00
2023-05-15T20:09:59.258Z,94711.00
2023-05-15T20:10:59.303Z,94707.00
2023-05-15T20:11:59.376Z,94707.00
2023-05-15T20:12:59.435Z,94706.00
2023-05-15T20:13:59.481Z,94706.00
2023-05-15T20:14:59.573Z,94706.00
2023-05-15T20:15:59.640Z,94707.00
2023-05-15T20:16:59.690Z,94706.00
2023-05-15T20:17:59.787Z,94706.00
2023-05-15T20:18:59.897Z,94706.00
2023-05-15T20:19:59.869Z,94706.00
2023-05-15T20:20:59.888Z,94709.00
2023-05-15T20:21:59.966Z,94707.00
2023-05-15T20:23:00.034Z,94707.00
2023-05-15T20:24:00.114Z,94708.00
2023-05-15T20:25:00.197Z,94708.00
2023-05-15T20:26:00.217Z,94707.00
2023-05-15T20:27:00.276Z,94709.00
2023-05-15T20:28:00.302Z,94708.00
2023-05-15T20:29:00.372Z,94710.00
2023-05-15T20:30:00.457Z,94708.00
2023-05-15T20:31:00.520Z,94706.00
2023-05-15T20:32:00.624Z,94705.00
2023-05-15T20:33:00.673Z,94705.00
2023-05-15T20:34:00.647Z,94705.00
2023-05-15T20:35:00.714Z,94705.00
2023-05-15T20:36:00.750Z,94705.00
2023-05-15T20:37:00.802Z,94708.00
2023-05-15T20:38:00.860Z,94708.00
2023-05-15T20:39:00.938Z,94708.00
2023-05-15T20:40:00.967Z,94709.00
2023-05-15T20:41:00.982Z,94711.00
2023-05-15T20:42:01.046Z,94711.00
2023-05-15T20:43:01.077Z,94711.00
2023-05-15T20:44:01.129Z,94711.00
2023-05-15T20:45:01.095Z,94712.00
2023-05-15T20:46:01.181Z,94710.00
2023-05-15T20:47:01.161Z,94708.00
2023-05-15T20:48:01.246Z,94708.00
2023-05-15T20:49:01.244Z,94710.00
2023-05-15T20:50:01.233Z,94707.00
2023-05-15T20:51:01.325Z,94709.00
2023-05-15T20:52:01.363Z,94711.00
2023-05-15T20:53:01.358Z,94714.00
2023-05-15T20:54:01.368Z,94714.00
2023-05-15T20:55:01.398Z,94716.00
2023-05-15T20:56:01.434Z,94720.00
2023-05-15T20:57:01.442Z,94722.00
2023-05-15T20:58:01.449Z,94721.00
2023-05-15T20:59:01.494Z,94721.00
2023-05-15T21:00:01.491Z,94722.00
2023-05-15T21:01:01.607Z,94725.00
2023-05-15T21:02:01.540Z,94726.00
2023-05-15T21:03:01.733Z,94727.00
2023-05-15T21:04:01.663Z,94727.00
2023-05-15T21:05:01.565Z,94726.00
2023-05-15T21:06:01.578Z,94728.00
2023-05-15T21:07:01.571Z,94726.00
2023-05-15T21:08:01.610Z,94730.00
2023-05-15T21:09:01.598Z,94730.00
2023-05-15T21:10:01.637Z,94732.00
2023-05-15T21:11:01.621Z,94733.00
2023-05-15T21:12:01.616Z,94734.00
2023-05-15T21:13:01.629Z,94736.00
2023-05-15T21:14:32.085Z,94737.00
2023-05-15T21:15:32.096Z,94738.00
2023-05-15T21:16:32.116Z,94740.00
2023-05-15T21:17:32.094Z,94738.00
2023-05-15T21:18:32.093Z,94738.00
2023-05-15T21:19:32.065Z,94738.00
2023-05-15T21:20:34.899Z,94740.00
2023-05-15T21:21:32.064Z,94742.00
2023-05-15T21:22:32.038Z,94743.00
2023-05-15T21:23:32.030Z,94741.00
2023-05-15T21:24:32.005Z,94739.00
2023-05-15T21:25:32.049Z,94740.00
2023-05-15T21:26:32.036Z,94739.00
2023-05-15T21:27:31.997Z,94740.00
2023-05-15T21:28:31.997Z,94741.00
2023-05-15T21:29:31.998Z,94741.00
2023-05-15T21:30:32.021Z,94740.00
2023-05-15T21:31:32.089Z,94740.00
2023-05-15T21:32:31.973Z,94739.00
2023-05-15T21:33:31.928Z,94739.00
2023-05-15T21:34:31.939Z,94740.00
2023-05-15T21:35:32.001Z,94738.00
2023-05-15T21:36:31.915Z,94739.00
2023-05-15T21:37:31.944Z,94739.00
2023-05-15T21:38:31.944Z,94737.00
2023-05-15T21:39:31.946Z,94739.00
2023-05-15T21:40:31.932Z,94737.00
2023-05-15T21:41:31.931Z,94736.00
2023-05-15T21:42:31.930Z,94738.00
2023-05-15T21:43:31.916Z,94740.00
2023-05-15T21:44:31.883Z,94741.00
2023-05-15T21:45:31.902Z,94741.00
2023-05-15T21:46:32.814Z,94740.00
2023-05-15T21:47:31.918Z,94739.00
2023-05-15T21:48:31.880Z,94740.00
2023-05-15T21:49:31.864Z,94740.00
2023-05-15T21:50:31.848Z,94739.00
2023-05-15T21:51:31.860Z,94737.00
2023-05-15T21:52:31.844Z,94740.00
2023-05-15T21:53:31.843Z,94739.00
2023-05-15T21:54:31.835Z,94740.00
2023-05-15T21:55:31.823Z,94741.00
2023-05-15T21:56:31.810Z,94740.00
2023-05-15T21:57:31.790Z,94742.00
2023-05-15T21:58:31.795Z,94743.00
2023-05-15T21:59:31.792Z,94744.00
2023-05-15T22:00:31.780Z,94743.00
2023-05-15T22:01:31.800Z,94745.00
2023-05-15T22:02:31.825Z,94747.00
2023-05-15T22:03:31.810Z,94747.00
2023-05-15T22:04:31.794Z,94748.00
2023-05-15T22:05:31.756Z,94746.00
2023-05-15T22:06:31.751Z,94745.00
2023-05-15T22:07:31.755Z,94746.00
2023-05-15T22:08:31.704Z,94746.00
2023-05-15T22:09:31.777Z,94745.00
2023-05-15T22:10:31.712Z,94745.00
2023-05-15T22:11:31.715Z,94747.00
2023-05-15T22:12:31.709Z,94746.00
2023-05-15T22:13:31.692Z,94747.00
2023-05-15T22:14:31.653Z,94747.00
2023-05-15T22:15:31.717Z,94746.00
2023-05-15T22:16:31.714Z,94747.00
2023-05-15T22:17:31.677Z,94747.00
2023-05-15T22:18:31.774Z,94747.00
2023-05-15T22:19:33.526Z,94746.00
2023-05-15T22:20:31.648Z,94746.00
2023-05-15T22:21:31.648Z,94747.00
2023-05-15T22:22:31.616Z,94746.00
2023-05-15T22:23:31.621Z,94746.00
2023-05-15T22:24:31.657Z,94746.00
2023-05-15T22:25:31.616Z,94748.00
2023-05-15T22:26:31.621Z,94747.00
2023-05-15T22:27:31.650Z,94750.00
2023-05-15T22:28:31.595Z,94752.00
2023-05-15T22:29:31.590Z,94754.00
2023-05-15T22:30:31.551Z,94754.00
2023-05-15T22:31:31.613Z,94755.00
2023-05-15T22:32:31.618Z,94754.00
2023-05-15T22:33:31.545Z,94750.00
2023-05-15T22:34:31.550Z,94749.00
2023-05-15T22:35:31.530Z,94747.00
2023-05-15T22:36:31.536Z,94744.00
2023-05-15T22:37:31.572Z,94740.00
2023-05-15T22:38:31.583Z,94740.00
2023-05-15T22:39:31.619Z,94736.00
2023-05-15T22:40:31.632Z,94737.00
2023-05-15T22:41:31.629Z,94736.00
2023-05-15T22:42:31.646Z,94734.00
2023-05-15T22:43:31.690Z,94735.00
2023-05-15T22:44:31.691Z,94735.00
2023-05-15T22:45:31.737Z,94733.00
2023-05-15T22:46:31.856Z,94732.00
2023-05-15T22:47:31.805Z,94729.00
2023-05-15T22:48:31.767Z,94727.00
2023-05-15T22:49:31.798Z,94726.00
2023-05-15T22:50:31.842Z,94723.00
2023-05-15T22:51:31.881Z,94722.00
2023-05-15T22:52:31.906Z,94718.00
2023-05-15T22:53:31.899Z,94719.00
2023-05-15T22:54:31.930Z,94719.00
2023-05-15T22:55:31.997Z,94719.00
2023-05-15T22:56:32.037Z,94721.00
2023-05-15T22:57:32.007Z,94720.00
2023-05-15T22:58:32.062Z,94722.00
2023-05-15T22:59:32.095Z,94722.00
2023-05-15T23:00:32.105Z,94721.00
2023-05-15T23:02:17.618Z,94723.00
2023-05-15T23:03:17.663Z,94723.00
2023-05-15T23:04:17.656Z,94723.00
2023-05-15T23:05:17.557Z,94726.00
2023-05-15T23:06:17.564Z,94722.00
2023-05-15T23:07:17.561Z,94726.00
2023-05-15T23:08:17.511Z,94725.00
2023-05-15T23:09:17.530Z,94727.00
2023-05-15T23:10:17.528Z,94727.00
2023-05-15T23:11:17.534Z,94728.00
2023-05-15T23:12:17.522Z,94727.00
2023-05-15T23:13:17.513Z,94726.00
2023-05-15T23:14:17.545Z,94725.00
2023-05-15T23:15:17.475Z,94725.00
2023-05-15T23:16:17.528Z,94724.00
2023-05-15T23:17:17.482Z,94723.00
2023-05-15T23:18:17.532Z,94723.00
2023-05-15T23:19:17.534Z,94724.00
2023-05-15T23:20:17.456Z,94722.00
2023-05-15T23:21:17.450Z,94719.00
2023-05-15T23:22:17.416Z,94720.00
2023-05-15T23:23:17.449Z,94717.00
2023-05-15T23:24:17.434Z,94717.00
2023-05-15T23:25:17.426Z,94717.00
2023-05-15T23:26:17.399Z,94716.00
2023-05-15T23:27:17.398Z,94715.00
2023-05-15T23:28:17.410Z,94713.00
2023-05-15T23:29:17.379Z,94712.00
2023-05-15T23:30:17.362Z,94710.00
2023-05-15T23:31:17.491Z,94711.00
2023-05-15T23:32:17.379Z,94709.00
2023-05-15T23:33:17.373Z,94709.00
2023-05-15T23:34:17.404Z,94708.00
2023-05-15T23:35:17.341Z,94708.00
2023-05-15T23:36:17.343Z,94707.00
2023-05-15T23:37:17.353Z,94707.00
2023-05-15T23:38:17.337Z,94705.00
2023-05-15T23:39:17.350Z,94707.00
2023-05-15T23:40:17.320Z,94705.00
2023-05-15T23:41:17.315Z,94705.00
2023-05-15T23:42:17.319Z,94706.00
2023-05-15T23:43:17.301Z,94708.00
2023-05-15T23:44:17.303Z,94708.00
2023-05-15T23:45:17.300Z,94708.00
2023-05-15T23:46:17.369Z,94708.00
2023-05-15T23:47:17.268Z,94707.00
2023-05-15T23:48:17.343Z,94705.00
2023-05-15T23:49:17.238Z,94707.00
2023-05-15T23:50:17.274Z,94708.00
2023-05-15T23:51:17.221Z,94704.00
2023-05-15T23:52:17.259Z,94708.00
2023-05-15T23:53:17.309Z,94708.00
2023-05-15T23:54:17.371Z,94707.00
2023-05-15T23:55:17.401Z,94706.00
2023-05-15T23:56:17.437Z,94707.00
2023-05-15T23:57:17.491Z,94706.00
2023-05-15T23:58:17.510Z,94705.00
2023-05-15T23:59:17.559Z,94704.00
